Time;durP1;ratioP1;P1;durP2;ratioP2;P2;SDS_P1;SDS_P2;PMS_P1;PMS_P2;Temp;Humidity;BMP_temperature;BMP_pressure;BME280_temperature;BME280_humidity;BME280_pressure;Samples;Min_cycle;Max_cycle;Signal;HPM_P1;HPM_P2
2022/03/26 00:00:14;;;;;;;512.30;141.67;;;2.20;1.00;;;;;;5111985;28;20044;-79
2022/03/26 00:02:40;;;;;;;452.33;128.60;;;2.20;1.00;;;;;;5111731;28;20044;-85
2022/03/26 00:05:06;;;;;;;449.03;118.87;;;2.20;1.00;;;;;;5094700;28;20043;-79
2022/03/26 00:07:32;;;;;;;405.43;111.60;;;2.10;1.00;;;;;;5079627;28;20116;-85
2022/03/26 00:09:58;;;;;;;368.80;108.47;;;2.00;1.00;;;;;;5115912;28;20039;-85
2022/03/26 00:12:23;;;;;;;498.20;110.33;;;2.00;1.00;;;;;;5065087;28;20051;-85
2022/03/26 00:14:49;;;;;;;546.93;109.63;;;1.90;1.00;;;;;;5081895;28;20040;-82
2022/03/26 00:17:15;;;;;;;608.20;110.13;;;1.80;8.00;;;;;;5115823;28;20046;-85
2022/03/26 00:19:40;;;;;;;1446.20;140.60;;;1.70;1.00;;;;;;5115476;28;20130;-79
2022/03/26 00:22:06;;;;;;;949.83;116.33;;;1.60;1.00;;;;;;5098923;28;20126;-85
2022/03/26 00:24:32;;;;;;;804.23;100.43;;;1.50;1.00;;;;;;5115959;28;20047;-85
2022/03/26 00:26:58;;;;;;;903.40;110.73;;;1.40;1.00;;;;;;5115533;28;20473;-79
2022/03/26 00:29:23;;;;;;;939.97;121.73;;;1.40;1.00;;;;;;5098680;28;20138;-86
2022/03/26 00:31:49;;;;;;;1273.13;136.97;;;1.30;1.00;;;;;;5098409;28;20050;-79
2022/03/26 00:34:15;;;;;;;899.23;115.67;;;1.30;1.00;;;;;;5098360;28;20474;-85
2022/03/26 00:36:40;;;;;;;1912.77;160.33;;;1.20;1.00;;;;;;5064656;28;20036;-79
2022/03/26 00:39:07;;;;;;;1940.37;171.43;;;1.20;1.00;;;;;;5081112;28;20402;-85
2022/03/26 00:41:33;;;;;;;921.70;121.60;;;1.10;1.00;;;;;;5115050;28;20041;-85
2022/03/26 00:43:59;;;;;;;1361.73;139.73;;;1.10;1.00;;;;;;5098060;28;20088;-85
2022/03/26 00:46:24;;;;;;;1999.90;179.77;;;1.20;1.00;;;;;;5097929;28;20472;-85
2022/03/26 00:48:51;;;;;;;1999.90;193.57;;;1.30;46.10;;;;;;5098480;28;20509;-79
2022/03/26 00:51:17;;;;;;;1999.90;157.50;;;1.30;58.10;;;;;;5114824;28;20075;-79
2022/03/26 00:53:44;;;;;;;1659.20;154.00;;;1.30;56.50;;;;;;5081579;28;20545;-85
2022/03/26 00:56:11;;;;;;;1999.90;193.63;;;1.30;54.50;;;;;;5115217;28;20516;-85
2022/03/26 00:58:36;;;;;;;1713.37;148.30;;;1.20;49.00;;;;;;5115477;28;20052;-79
2022/03/26 01:01:02;;;;;;;1999.90;178.93;;;1.20;56.20;;;;;;5115099;28;20046;-85
2022/03/26 01:03:28;;;;;;;1118.87;136.40;;;1.30;75.30;;;;;;5064279;28;20044;-79
2022/03/26 01:05:54;;;;;;;1999.90;206.20;;;1.30;90.40;;;;;;5114828;28;20114;-85
2022/03/26 01:08:19;;;;;;;1999.90;217.80;;;1.30;88.10;;;;;;5097865;28;20311;-79
2022/03/26 01:10:46;;;;;;;1999.90;215.10;;;1.30;91.40;;;;;;5115134;28;20044;-85
2022/03/26 01:13:12;;;;;;;1999.90;182.13;;;1.40;92.10;;;;;;5097623;28;20210;-79
2022/03/26 01:15:38;;;;;;;1999.90;171.53;;;1.30;91.10;;;;;;5097577;28;20040;-79
2022/03/26 01:18:04;;;;;;;1999.90;184.20;;;1.40;96.70;;;;;;5097454;28;20042;-85
2022/03/26 01:20:30;;;;;;;1019.27;117.50;;;1.20;95.90;;;;;;5080454;28;20056;-79
2022/03/26 01:22:56;;;;;;;1288.87;126.00;;;1.20;81.30;;;;;;5114579;28;20043;-85
2022/03/26 01:25:22;;;;;;;1999.90;200.63;;;1.00;72.80;;;;;;5114912;28;20044;-79
2022/03/26 01:27:48;;;;;;;1999.90;203.73;;;1.00;66.50;;;;;;5097726;28;20032;-85
2022/03/26 01:30:13;;;;;;;1999.90;233.53;;;0.90;65.10;;;;;;5114269;28;20043;-85
2022/03/26 01:32:40;;;;;;;1999.90;212.00;;;0.90;61.80;;;;;;5097492;28;20086;-79
2022/03/26 01:35:06;;;;;;;1999.90;180.10;;;0.90;70.70;;;;;;5114143;28;20036;-78
2022/03/26 01:37:31;;;;;;;1999.90;188.50;;;0.90;90.20;;;;;;5114362;28;20046;-79
2022/03/26 01:39:57;;;;;;;849.03;132.20;;;1.00;93.70;;;;;;5097259;28;20040;-85
2022/03/26 01:42:23;;;;;;;1999.90;233.90;;;1.00;98.20;;;;;;5097180;28;20052;-85
2022/03/26 01:44:49;;;;;;;1999.90;229.33;;;1.10;99.90;;;;;;5080308;28;20036;-85
2022/03/26 01:47:15;;;;;;;445.57;115.47;;;1.20;99.90;;;;;;5113389;28;20040;-79
2022/03/26 01:49:41;;;;;;;418.13;113.17;;;1.30;99.90;;;;;;5097096;28;20402;-85
2022/03/26 01:52:09;;;;;;;741.53;143.10;;;1.30;99.90;;;;;;5096719;28;20044;-79
2022/03/26 01:54:35;;;;;;;557.80;122.83;;;1.30;99.90;;;;;;5114037;28;20043;-85
2022/03/26 01:57:02;;;;;;;420.80;93.33;;;1.20;99.90;;;;;;5113656;28;20081;-85
2022/03/26 01:59:28;;;;;;;295.73;85.63;;;1.10;99.90;;;;;;5097014;28;20086;-85
2022/03/26 02:01:54;;;;;;;334.63;90.93;;;1.00;99.90;;;;;;5097489;28;20075;-78
2022/03/26 02:04:20;;;;;;;399.57;101.97;;;1.00;99.90;;;;;;5096262;28;20120;-85
2022/03/26 02:06:48;;;;;;;606.80;113.37;;;1.00;99.90;;;;;;5079600;28;20050;-85
2022/03/26 02:09:15;;;;;;;622.60;118.97;;;1.00;99.90;;;;;;5096423;28;20047;-85
2022/03/26 02:11:46;;;;;;;338.50;88.23;;;1.00;99.90;;;;;;5113282;28;20047;-79
2022/03/26 02:14:13;;;;;;;352.97;90.17;;;1.00;99.90;;;;;;5113632;28;20057;-79
2022/03/26 02:16:40;;;;;;;353.63;86.43;;;1.00;99.90;;;;;;5096422;28;20039;-79
2022/03/26 02:19:08;;;;;;;349.50;93.53;;;1.00;99.90;;;;;;5096280;28;20052;-78
2022/03/26 02:21:35;;;;;;;371.67;95.07;;;1.00;99.90;;;;;;5096389;28;20043;-79
2022/03/26 02:24:03;;;;;;;403.20;101.73;;;1.00;99.90;;;;;;5079652;28;20563;-85
2022/03/26 02:26:30;;;;;;;328.53;87.63;;;1.00;99.90;;;;;;5113422;28;20494;-79
2022/03/26 02:28:57;;;;;;;335.47;88.37;;;1.00;99.90;;;;;;5096316;28;20092;-79
2022/03/26 02:31:26;;;;;;;379.60;96.80;;;0.90;99.90;;;;;;5112611;28;20494;-79
2022/03/26 02:33:53;;;;;;;328.73;84.93;;;0.90;99.90;;;;;;5096250;28;20473;-85
2022/03/26 02:36:18;;;;;;;658.30;119.40;;;0.90;99.90;;;;;;5113211;28;20401;-79
2022/03/26 02:38:44;;;;;;;989.43;148.90;;;0.80;99.90;;;;;;5079355;28;20040;-85
2022/03/26 02:41:10;;;;;;;1999.90;227.73;;;0.80;99.90;;;;;;5112978;28;20032;-79
2022/03/26 02:43:36;;;;;;;1999.90;257.50;;;0.90;99.90;;;;;;5096090;28;20039;-85
2022/03/26 02:46:03;;;;;;;1927.40;191.53;;;0.90;99.90;;;;;;5112715;28;20051;-79
2022/03/26 02:48:30;;;;;;;1999.90;221.77;;;0.90;99.90;;;;;;5113565;28;20375;-79
2022/03/26 02:50:56;;;;;;;1697.23;166.87;;;0.80;99.90;;;;;;5095662;28;20050;-79
2022/03/26 02:53:21;;;;;;;1999.90;200.93;;;0.70;99.90;;;;;;5095732;28;20044;-85
2022/03/26 02:55:47;;;;;;;1999.90;222.20;;;0.70;99.90;;;;;;5112621;28;20039;-79
2022/03/26 02:58:14;;;;;;;1999.90;241.87;;;0.70;99.90;;;;;;5095783;28;20074;-85
2022/03/26 03:00:40;;;;;;;1999.90;200.37;;;0.80;99.90;;;;;;5112757;28;20402;-78
2022/03/26 03:03:06;;;;;;;1672.57;157.03;;;0.70;99.90;;;;;;5112477;28;20105;-85
2022/03/26 03:05:35;;;;;;;1999.90;217.13;;;0.60;99.90;;;;;;5095673;28;20478;-79
2022/03/26 03:08:02;;;;;;;1999.90;204.00;;;0.60;99.90;;;;;;5095333;28;20051;-79
2022/03/26 03:10:28;;;;;;;1999.90;218.53;;;0.50;99.90;;;;;;5112430;28;20126;-85
2022/03/26 03:12:54;;;;;;;1999.90;205.73;;;0.40;99.90;;;;;;5112386;28;20105;-85
2022/03/26 03:15:20;;;;;;;1423.53;144.13;;;0.40;99.90;;;;;;5095563;28;20482;-85
2022/03/26 03:17:49;;;;;;;1999.90;236.67;;;0.40;99.90;;;;;;5112263;28;20043;-79
2022/03/26 03:20:15;;;;;;;1999.90;198.63;;;0.40;99.90;;;;;;5112161;28;20063;-85
2022/03/26 03:22:42;;;;;;;1999.90;185.00;;;0.40;99.90;;;;;;5112273;28;20051;-79
2022/03/26 03:25:09;;;;;;;1889.67;214.40;;;0.50;99.90;;;;;;5094585;28;20046;-85
2022/03/26 03:27:36;;;;;;;1461.43;177.20;;;0.40;99.90;;;;;;5078180;28;20055;-79
2022/03/26 03:30:06;;;;;;;530.20;122.80;;;0.40;99.90;;;;;;5078410;28;20043;-78
2022/03/26 03:32:32;;;;;;;609.70;131.90;;;0.40;99.90;;;;;;5095032;28;20104;-85
2022/03/26 03:34:58;;;;;;;1190.27;160.20;;;0.40;99.90;;;;;;5095046;28;20574;-79
2022/03/26 03:37:24;;;;;;;777.57;141.40;;;0.40;99.90;;;;;;5094945;28;20040;-85
2022/03/26 03:39:50;;;;;;;1684.43;155.37;;;0.40;99.90;;;;;;5095226;28;20109;-79
2022/03/26 03:42:16;;;;;;;1739.97;183.37;;;0.40;99.90;;;;;;5110786;28;20067;-79
2022/03/26 03:44:42;;;;;;;1683.27;179.27;;;0.30;99.90;;;;;;5095170;28;20047;-85
2022/03/26 03:47:08;;;;;;;1999.90;241.37;;;0.30;99.90;;;;;;5111865;28;20036;-85
2022/03/26 03:49:35;;;;;;;1999.90;219.90;;;0.40;99.90;;;;;;5111929;28;20048;-78
2022/03/26 03:52:04;;;;;;;1795.80;196.37;;;0.50;99.90;;;;;;5094775;28;20289;-85
2022/03/26 03:54:30;;;;;;;1999.90;223.87;;;0.60;99.90;;;;;;5078088;28;20039;-78
2022/03/26 03:56:56;;;;;;;1999.90;199.87;;;0.60;99.90;;;;;;5077869;28;20131;-84
2022/03/26 03:59:22;;;;;;;1999.90;211.37;;;0.70;99.90;;;;;;5111837;28;20044;-79
2022/03/26 04:01:47;;;;;;;1999.90;208.33;;;0.80;99.90;;;;;;5094830;28;20069;-78
2022/03/26 04:04:13;;;;;;;1551.17;160.87;;;0.80;99.90;;;;;;5111921;28;20460;-79
2022/03/26 04:06:39;;;;;;;1846.07;175.97;;;0.70;99.90;;;;;;5094541;28;20040;-78
2022/03/26 04:09:05;;;;;;;1999.90;174.03;;;0.70;99.90;;;;;;5111611;28;20095;-79
2022/03/26 04:11:31;;;;;;;1544.50;156.50;;;0.60;99.90;;;;;;5094766;28;20082;-84
2022/03/26 04:13:56;;;;;;;1374.00;155.33;;;0.60;99.90;;;;;;5061287;28;20088;-79
2022/03/26 04:16:23;;;;;;;1473.73;157.57;;;0.50;99.90;;;;;;5111691;28;20455;-78
2022/03/26 04:18:49;;;;;;;1783.73;220.23;;;0.50;99.90;;;;;;5094578;28;20056;-79
2022/03/26 04:21:16;;;;;;;1536.53;179.67;;;0.60;99.90;;;;;;5111670;28;20055;-84
2022/03/26 04:23:42;;;;;;;585.07;130.27;;;0.80;99.90;;;;;;5111574;28;20169;-78
2022/03/26 04:26:08;;;;;;;546.90;126.90;;;0.80;99.90;;;;;;5094817;28;20401;-84
2022/03/26 04:28:35;;;;;;;552.67;129.43;;;0.90;99.90;;;;;;5078115;28;20405;-80
2022/03/26 04:31:00;;;;;;;411.50;109.30;;;0.90;99.90;;;;;;5094451;28;20046;-79
2022/03/26 04:33:26;;;;;;;386.87;104.10;;;0.80;99.90;;;;;;5094603;28;20126;-79
2022/03/26 04:35:53;;;;;;;334.77;99.60;;;0.70;99.90;;;;;;5077638;28;20035;-84
2022/03/26 04:38:19;;;;;;;372.97;98.20;;;0.60;99.90;;;;;;5094426;28;20079;-78
2022/03/26 04:40:45;;;;;;;351.87;97.10;;;0.50;99.90;;;;;;5077892;28;20051;-78
2022/03/26 04:43:11;;;;;;;358.63;93.50;;;0.40;99.90;;;;;;5111671;28;20371;-79
2022/03/26 04:45:37;;;;;;;727.70;126.77;;;0.30;99.90;;;;;;5093983;28;20108;-78
2022/03/26 04:48:03;;;;;;;393.77;95.83;;;0.20;99.90;;;;;;5111174;28;20032;-78
2022/03/26 04:50:29;;;;;;;639.40;125.80;;;0.20;99.90;;;;;;5077522;28;20042;-79
2022/03/26 04:52:55;;;;;;;1887.17;202.53;;;0.20;99.90;;;;;;5112467;28;20498;-85
2022/03/26 04:55:20;;;;;;;800.80;135.53;;;0.20;99.90;;;;;;5115228;28;20032;-79
2022/03/26 04:57:53;;;;;;;1161.80;165.17;;;0.30;99.90;;;;;;5114872;28;20508;-78
2022/03/26 05:00:20;;;;;;;1472.13;181.27;;;0.30;99.90;;;;;;5099082;28;20120;-85
2022/03/26 05:02:46;;;;;;;1999.90;230.83;;;0.40;99.90;;;;;;5064311;28;20039;-78
2022/03/26 05:05:13;;;;;;;1999.90;215.10;;;0.40;99.90;;;;;;5098035;28;20091;-78
2022/03/26 05:07:48;;;;;;;1999.90;208.47;;;0.40;99.90;;;;;;5114780;28;20039;-84
2022/03/26 05:10:23;;;;;;;1999.90;205.00;;;0.30;99.90;;;;;;5083782;28;20043;-84
2022/03/26 05:12:50;;;;;;;1487.50;133.47;;;0.30;99.90;;;;;;5097581;28;20043;-78
2022/03/26 05:15:18;;;;;;;1999.90;182.83;;;0.30;99.90;;;;;;5097568;28;20042;-84
2022/03/26 05:17:44;;;;;;;1765.53;192.60;;;0.20;99.90;;;;;;5114563;28;20062;-84
2022/03/26 05:20:14;;;;;;;1455.57;181.80;;;0.30;99.90;;;;;;5114429;28;20052;-78
2022/03/26 05:22:47;;;;;;;1999.90;211.63;;;0.30;99.90;;;;;;5114427;28;20051;-78
2022/03/26 05:25:15;;;;;;;1566.13;157.47;;;0.30;99.90;;;;;;5097524;28;20043;-84
2022/03/26 05:27:45;;;;;;;1766.57;153.27;;;0.40;99.90;;;;;;5097710;28;20062;-80
2022/03/26 05:30:11;;;;;;;1999.90;216.77;;;0.40;99.90;;;;;;5097770;28;20129;-78
2022/03/26 05:32:37;;;;;;;1962.23;185.17;;;0.40;99.90;;;;;;5063610;28;20071;-79
2022/03/26 05:35:03;;;;;;;1999.90;180.67;;;0.40;99.90;;;;;;5097232;28;20108;-78
2022/03/26 05:37:30;;;;;;;1293.23;152.40;;;0.50;99.90;;;;;;5097479;28;20127;-84
2022/03/26 05:39:55;;;;;;;1999.90;199.47;;;0.50;99.90;;;;;;5097048;28;20032;-79
2022/03/26 05:42:21;;;;;;;1936.77;182.67;;;0.50;99.90;;;;;;5114258;28;20528;-85
2022/03/26 05:44:47;;;;;;;1828.27;171.60;;;0.50;99.90;;;;;;5097367;28;20050;-84
2022/03/26 05:47:13;;;;;;;1359.83;148.13;;;0.60;99.90;;;;;;5113937;28;20088;-84
2022/03/26 05:49:38;;;;;;;1143.87;144.87;;;0.60;99.90;;;;;;5113925;28;20043;-84
2022/03/26 05:52:04;;;;;;;1752.77;152.77;;;0.60;99.90;;;;;;5096650;28;20130;-78
2022/03/26 05:54:30;;;;;;;1999.90;194.63;;;0.60;99.90;;;;;;5080265;28;20036;-84
2022/03/26 05:56:56;;;;;;;1713.97;165.33;;;0.60;99.90;;;;;;5113739;28;20054;-84
2022/03/26 05:59:23;;;;;;;1156.73;130.33;;;0.60;99.90;;;;;;5080080;28;20043;-78
2022/03/26 06:01:50;;;;;;;1605.67;155.30;;;0.60;99.90;;;;;;5079461;28;20764;-78
2022/03/26 06:04:17;;;;;;;1040.37;119.90;;;0.60;99.90;;;;;;5112658;28;20047;-84
2022/03/26 06:06:43;;;;;;;1246.10;131.57;;;0.60;99.90;;;;;;5096129;28;20050;-84
2022/03/26 06:09:10;;;;;;;819.50;100.30;;;0.60;99.90;;;;;;5113135;28;20040;-84
2022/03/26 06:11:36;;;;;;;1128.43;116.63;;;0.60;99.90;;;;;;5112959;28;20251;-78
2022/03/26 06:14:02;;;;;;;581.23;91.00;;;0.50;99.90;;;;;;5096509;28;20039;-79
2022/03/26 06:16:28;;;;;;;585.90;96.93;;;0.40;99.90;;;;;;5079869;28;20490;-85
2022/03/26 06:18:54;;;;;;;497.67;100.90;;;0.40;99.90;;;;;;5113584;28;20048;-78
2022/03/26 06:21:20;;;;;;;182.27;67.83;;;0.40;99.90;;;;;;5096629;28;20047;-78
2022/03/26 06:23:45;;;;;;;284.80;76.43;;;0.40;99.90;;;;;;5096533;28;20042;-84
2022/03/26 06:26:11;;;;;;;275.37;81.23;;;0.40;99.90;;;;;;5079340;28;20036;-79
2022/03/26 06:28:37;;;;;;;313.30;84.57;;;0.40;99.90;;;;;;5096483;28;20040;-84
2022/03/26 06:31:04;;;;;;;656.00;116.67;;;0.50;99.90;;;;;;5096026;28;20047;-85
2022/03/26 06:33:30;;;;;;;1277.20;155.00;;;0.60;99.90;;;;;;5113187;28;20035;-79
2022/03/26 06:35:56;;;;;;;1838.80;205.67;;;0.70;99.90;;;;;;5113122;28;20468;-78
2022/03/26 06:38:22;;;;;;;1246.43;146.93;;;0.80;99.90;;;;;;5113001;28;20077;-84
2022/03/26 06:40:48;;;;;;;588.40;112.23;;;0.90;99.90;;;;;;5112907;28;20126;-79
2022/03/26 06:43:14;;;;;;;421.50;101.00;;;1.10;99.90;;;;;;5096100;28;20055;-79
2022/03/26 06:45:40;;;;;;;1999.90;181.13;;;1.20;99.90;;;;;;5112892;28;20061;-78
2022/03/26 06:48:07;;;;;;;849.10;144.67;;;1.40;99.90;;;;;;5079162;28;20073;-78
2022/03/26 06:50:33;;;;;;;1377.43;192.23;;;1.70;99.90;;;;;;5112740;28;20035;-84
2022/03/26 06:52:59;;;;;;;819.10;148.07;;;1.90;99.90;;;;;;5112692;28;20524;-84
2022/03/26 06:55:26;;;;;;;1101.07;166.33;;;2.10;99.90;;;;;;5079182;28;20096;-79
2022/03/26 06:57:52;;;;;;;1672.70;197.60;;;2.20;99.90;;;;;;5095627;28;20039;-84
2022/03/26 07:00:18;;;;;;;669.50;140.13;;;2.30;99.90;;;;;;5095566;28;20066;-84
2022/03/26 07:02:44;;;;;;;530.40;135.00;;;2.50;99.90;;;;;;5112493;28;20504;-78
2022/03/26 07:05:11;;;;;;;532.00;137.97;;;2.50;99.90;;;;;;5061893;28;20036;-84
2022/03/26 07:07:38;;;;;;;510.97;144.30;;;2.80;99.90;;;;;;5095021;28;20101;-84
2022/03/26 07:10:05;;;;;;;507.07;149.30;;;3.20;99.90;;;;;;5095383;28;20047;-78
2022/03/26 07:12:30;;;;;;;520.77;142.03;;;3.40;99.90;;;;;;5112227;28;20071;-84
2022/03/26 07:14:57;;;;;;;524.10;148.57;;;3.80;99.90;;;;;;5095555;28;20085;-78
2022/03/26 07:17:23;;;;;;;506.23;155.17;;;4.20;99.90;;;;;;5078336;28;20062;-84
2022/03/26 07:19:51;;;;;;;482.50;155.33;;;4.70;99.90;;;;;;5078313;28;20090;-78
2022/03/26 07:22:18;;;;;;;483.00;148.50;;;4.80;99.90;;;;;;5095541;28;20052;-84
2022/03/26 07:24:43;;;;;;;456.53;153.23;;;5.20;99.90;;;;;;5095176;28;20039;-78
2022/03/26 07:27:09;;;;;;;477.80;154.63;;;5.50;99.90;;;;;;5111896;28;20043;-84
2022/03/26 07:29:38;;;;;;;431.50;135.90;;;5.70;99.90;;;;;;5078493;28;20402;-84
2022/03/26 07:32:09;;;;;;;428.25;138.85;;;5.90;99.90;;;;;;5111760;28;20111;-79
2022/03/26 07:34:35;;;;;;;384.65;131.75;;;6.10;99.90;;;;;;5111961;28;20086;-84
2022/03/26 07:37:01;;;;;;;388.85;132.93;;;6.40;99.90;;;;;;5111700;28;20043;-84
2022/03/26 07:39:27;;;;;;;360.67;130.75;;;6.70;99.90;;;;;;5112106;28;20050;-79
2022/03/26 07:41:54;;;;;;;346.60;126.78;;;6.90;99.90;;;;;;5078192;28;20383;-79
2022/03/26 07:44:19;;;;;;;289.70;114.28;;;7.20;99.90;;;;;;5111958;28;20130;-78
2022/03/26 07:46:45;;;;;;;254.93;108.63;;;7.30;99.90;;;;;;5095205;28;20596;-79
2022/03/26 07:49:11;;;;;;;247.00;105.88;;;7.40;99.90;;;;;;5094828;28;20126;-78
2022/03/26 07:51:37;;;;;;;220.23;95.53;;;7.60;99.90;;;;;;5077439;28;20044;-78
2022/03/26 07:54:02;;;;;;;207.15;91.45;;;7.70;99.90;;;;;;5077720;28;20043;-83
2022/03/26 07:56:28;;;;;;;183.88;86.45;;;7.80;99.90;;;;;;5111790;28;20511;-84
2022/03/26 07:58:54;;;;;;;159.68;82.43;;;8.00;99.90;;;;;;5112220;28;20040;-79
2022/03/26 08:01:20;;;;;;;169.15;82.93;;;8.20;99.90;;;;;;5094869;28;20043;-78
2022/03/26 08:03:46;;;;;;;142.55;72.60;;;8.40;99.90;;;;;;5094765;28;20126;-84
2022/03/26 08:06:12;;;;;;;135.77;69.97;;;8.60;99.90;;;;;;5061080;28;20105;-78
2022/03/26 08:08:40;;;;;;;135.23;68.72;;;8.80;99.90;;;;;;5094841;28;20226;-78
2022/03/26 08:11:06;;;;;;;115.57;64.75;;;9.00;99.90;;;;;;5095021;28;20075;-84
2022/03/26 08:13:33;;;;;;;132.52;65.88;;;9.20;60.20;;;;;;5078093;28;20493;-78
2022/03/26 08:15:59;;;;;;;111.13;61.67;;;9.40;53.90;;;;;;5078338;28;20393;-84
2022/03/26 08:18:25;;;;;;;114.78;61.15;;;9.50;1.70;;;;;;5111341;28;20082;-84
2022/03/26 08:20:51;;;;;;;105.68;58.72;;;9.70;1.00;;;;;;5077735;28;20079;-84
2022/03/26 08:23:16;;;;;;;91.32;54.97;;;9.80;1.00;;;;;;5111549;28;20087;-84
2022/03/26 08:28:26;;;;;;;105.65;58.13;;;10.10;1.00;;;;;;5098654;28;20060;-84
2022/03/26 08:30:52;;;;;;;105.95;58.58;;;10.20;99.90;;;;;;5115528;28;20159;-79
2022/03/26 08:33:18;;;;;;;100.18;56.13;;;10.30;99.90;;;;;;5081611;28;20131;-79
2022/03/26 08:35:44;;;;;;;92.95;53.10;;;10.40;99.90;;;;;;5098475;28;20079;-84
2022/03/26 08:38:09;;;;;;;92.82;54.33;;;10.50;1.00;;;;;;5098633;28;20520;-79
2022/03/26 08:40:35;;;;;;;91.00;55.80;;;10.70;99.90;;;;;;5115182;28;20043;-84
2022/03/26 08:43:01;;;;;;;84.72;52.67;;;10.80;99.90;;;;;;5114953;28;20050;-78
2022/03/26 08:45:27;;;;;;;89.35;53.50;;;10.90;99.90;;;;;;5115074;28;20044;-79
2022/03/26 08:47:54;;;;;;;90.38;54.22;;;11.00;99.90;;;;;;5115138;28;20124;-84
2022/03/26 08:50:20;;;;;;;88.63;54.47;;;11.00;99.90;;;;;;5115088;28;20051;-79
2022/03/26 08:52:47;;;;;;;83.10;49.97;;;11.10;99.90;;;;;;5097738;28;20044;-79
2022/03/26 08:55:14;;;;;;;79.82;50.63;;;11.20;99.90;;;;;;5098180;28;20064;-84
2022/03/26 08:57:40;;;;;;;84.68;51.13;;;11.40;99.90;;;;;;5114968;28;20092;-79
2022/03/26 09:00:07;;;;;;;78.75;46.28;;;11.50;99.90;;;;;;5080836;28;20040;-84
2022/03/26 09:02:33;;;;;;;82.93;49.40;;;11.70;99.90;;;;;;5081165;28;20086;-79
2022/03/26 09:04:58;;;;;;;72.78;43.55;;;11.70;1.00;;;;;;5114735;28;20079;-79
2022/03/26 09:07:24;;;;;;;58.38;38.65;;;11.80;1.00;;;;;;5114885;28;20040;-84
2022/03/26 09:09:50;;;;;;;61.20;42.40;;;12.00;1.00;;;;;;5114571;28;20044;-79
2022/03/26 09:12:15;;;;;;;66.03;41.40;;;12.10;1.00;;;;;;5080813;28;20039;-79
2022/03/26 09:14:41;;;;;;;61.17;40.45;;;12.30;1.00;;;;;;5097543;28;20126;-78
2022/03/26 09:17:07;;;;;;;61.88;41.78;;;12.40;1.00;;;;;;5114323;28;20041;-78
2022/03/26 09:19:32;;;;;;;58.13;37.38;;;12.70;99.90;;;;;;5097398;28;20134;-78
2022/03/26 09:21:58;;;;;;;50.28;33.20;;;13.50;99.90;;;;;;5114395;28;20500;-78
2022/03/26 09:24:24;;;;;;;41.55;28.63;;;14.30;99.90;;;;;;5114506;28;20047;-79
2022/03/26 09:26:50;;;;;;;43.42;30.35;;;14.80;1.00;;;;;;5080228;28;20131;-79
2022/03/26 09:29:16;;;;;;;45.60;28.17;;;15.30;1.00;;;;;;5114209;28;20470;-79
2022/03/26 09:31:43;;;;;;;42.45;28.52;;;15.30;99.90;;;;;;5096850;28;20040;-79
2022/03/26 09:34:09;;;;;;;41.30;30.15;;;15.50;99.90;;;;;;5114390;28;20050;-84
2022/03/26 09:36:35;;;;;;;36.20;26.58;;;15.80;99.90;;;;;;5096907;28;20410;-84
2022/03/26 09:39:00;;;;;;;35.85;28.02;;;16.10;99.90;;;;;;5113837;28;20074;-79
2022/03/26 09:41:27;;;;;;;39.50;26.48;;;16.60;99.90;;;;;;5114137;28;20044;-85
2022/03/26 09:43:54;;;;;;;30.83;21.20;;;16.80;99.90;;;;;;5114474;28;20497;-85
2022/03/26 09:46:20;;;;;;;34.35;24.30;;;16.90;99.90;;;;;;5114168;28;20036;-85
2022/03/26 09:48:47;;;;;;;36.17;25.15;;;17.00;99.90;;;;;;5097041;28;20493;-85
2022/03/26 09:51:21;;;;;;;37.28;27.08;;;17.10;99.90;;;;;;5113878;28;20509;-79
2022/03/26 09:53:50;;;;;;;38.15;26.58;;;16.60;12.30;;;;;;5114072;28;20040;-85
2022/03/26 09:56:17;;;;;;;33.17;22.60;;;16.30;1.00;;;;;;5113608;28;20184;-85
2022/03/26 09:58:43;;;;;;;35.50;24.77;;;16.20;19.70;;;;;;5113928;28;20051;-79
2022/03/26 10:01:08;;;;;;;30.27;21.50;;;16.30;80.20;;;;;;5113595;28;20039;-79
2022/03/26 10:03:38;;;;;;;28.35;19.55;;;16.60;74.80;;;;;;5113954;28;20138;-79
2022/03/26 10:06:07;;;;;;;29.23;20.60;;;16.80;1.00;;;;;;5113861;28;20579;-79
2022/03/26 10:08:37;;;;;;;24.35;19.20;;;16.80;1.00;;;;;;5113589;28;20072;-85
2022/03/26 10:11:04;;;;;;;31.42;21.30;;;16.70;1.00;;;;;;5096674;28;20104;-80
2022/03/26 10:13:43;;;;;;;30.70;18.95;;;16.60;1.00;;;;;;5096416;28;20577;-85
2022/03/26 10:16:11;;;;;;;21.90;16.10;;;16.30;1.00;;;;;;5096506;28;20555;-79
2022/03/26 10:18:42;;;;;;;27.00;17.38;;;16.40;1.00;;;;;;5079290;28;20032;-79
2022/03/26 10:21:16;;;;;;;22.08;15.25;;;16.60;1.00;;;;;;5096234;28;20053;-79
2022/03/26 10:23:43;;;;;;;18.10;11.68;;;16.60;1.00;;;;;;5113519;28;20090;-85
2022/03/26 10:26:21;;;;;;;19.75;11.85;;;16.50;1.00;;;;;;5096151;28;20036;-79
2022/03/26 10:28:52;;;;;;;18.15;12.48;;;16.90;1.00;;;;;;5096466;28;20097;-79
2022/03/26 10:34:12;;;;;;;17.52;11.80;;;17.30;1.00;;;;;;5113260;28;20043;-79
2022/03/26 10:36:42;;;;;;;13.07;9.50;;;17.30;1.00;;;;;;5095803;28;20046;-79
2022/03/26 10:39:25;;;;;;;13.77;10.45;;;17.50;1.00;;;;;;5095833;28;20074;-79
2022/03/26 10:41:55;;;;;;;11.55;8.73;;;17.60;1.00;;;;;;5112743;28;20047;-86
2022/03/26 10:44:27;;;;;;;12.98;8.80;;;17.70;1.00;;;;;;5095925;28;20044;-79
2022/03/26 10:46:58;;;;;;;9.35;6.60;;;17.30;1.00;;;;;;5095603;28;20044;-86
2022/03/26 10:49:32;;;;;;;9.85;6.93;;;17.30;1.00;;;;;;5095591;28;20051;-85
2022/03/26 10:52:10;;;;;;;9.95;6.60;;;17.60;1.00;;;;;;5095074;28;20053;-86
2022/03/26 10:54:36;;;;;;;11.38;6.43;;;18.00;1.00;;;;;;5112659;28;20089;-80
2022/03/26 10:57:03;;;;;;;8.77;5.68;;;18.00;1.00;;;;;;5112833;28;20040;-86
2022/03/26 10:59:30;;;;;;;9.35;5.25;;;18.00;1.00;;;;;;5113012;28;20043;-85
2022/03/26 11:01:57;;;;;;;8.40;5.20;;;17.90;1.00;;;;;;5095920;28;20207;-85
2022/03/26 11:04:22;;;;;;;6.97;5.15;;;19.10;1.00;;;;;;5112356;28;20532;-85
2022/03/26 11:06:49;;;;;;;8.35;4.95;;;18.40;1.00;;;;;;5112246;28;20044;-79
2022/03/26 11:09:16;;;;;;;10.75;4.70;;;18.50;1.00;;;;;;5112245;28;20126;-80
2022/03/26 11:11:45;;;;;;;8.80;5.40;;;18.70;1.00;;;;;;5078597;28;20475;-80
2022/03/26 11:14:25;;;;;;;8.75;4.82;;;18.20;1.00;;;;;;5112139;28;20054;-80
2022/03/26 11:17:25;;;;;;;7.72;4.93;;;18.30;1.00;;;;;;5095619;28;20063;-79
2022/03/26 11:20:06;;;;;;;7.30;4.55;;;18.00;1.00;;;;;;5111986;28;20059;-79
2022/03/26 11:23:01;;;;;;;6.00;3.92;;;18.20;1.00;;;;;;5112217;28;20062;-79
2022/03/26 11:25:44;;;;;;;3.33;2.35;;;17.90;1.00;;;;;;5112131;28;20043;-79
2022/03/26 11:28:38;;;;;;;5.63;3.75;;;17.90;1.00;;;;;;5094958;28;20050;-79
2022/03/26 11:31:31;;;;;;;10.20;3.15;;;17.50;1.00;;;;;;5094832;28;20096;-80
2022/03/26 11:34:05;;;;;;;5.10;3.13;;;17.90;1.00;;;;;;5112091;28;20043;-85
2022/03/26 11:36:31;;;;;;;5.78;3.60;;;17.60;1.00;;;;;;5111608;28;20087;-85
2022/03/26 11:39:12;;;;;;;7.22;3.50;;;17.80;1.00;;;;;;5111889;28;20130;-85
2022/03/26 11:41:39;;;;;;;4.95;2.60;;;17.70;1.00;;;;;;5111507;28;20043;-85
2022/03/26 11:44:07;;;;;;;9.50;4.38;;;17.40;1.00;;;;;;5111983;28;20044;-86
2022/03/26 11:52:26;;;;;;;6.30;3.20;;;18.10;1.00;;;;;;5111319;28;20165;-80
2022/03/26 11:55:01;;;;;;;6.22;3.50;;;18.60;1.00;;;;;;5111494;28;20067;-85
2022/03/26 11:57:29;;;;;;;13.27;5.13;;;18.80;99.90;;;;;;5094869;28;20478;-86
2022/03/26 11:59:58;;;;;;;7.95;3.45;;;18.70;99.90;;;;;;5077912;28;20056;-79
2022/03/26 12:02:29;;;;;;;7.32;4.93;;;18.70;1.00;;;;;;5111773;28;20376;-86
2022/03/26 12:06:35;;;;;;;6.63;4.18;;;18.30;1.00;;;;;;5098810;28;20050;-85
2022/03/26 12:07:50;;;;;;;7.07;4.85;;;18.60;1.00;;;;;;5116084;28;20075;-85
2022/03/26 12:10:20;;;;;;;8.82;4.43;;;18.70;1.00;;;;;;5098847;28;20054;-86
2022/03/26 12:12:50;;;;;;;5.80;4.57;;;18.30;1.00;;;;;;5081679;28;20054;-86
2022/03/26 12:15:16;;;;;;;7.97;4.40;;;17.90;1.00;;;;;;5115603;28;20051;-82
2022/03/26 12:17:53;;;;;;;5.70;4.25;;;18.00;1.00;;;;;;5099073;28;20035;-86
2022/03/26 12:20:35;;;;;;;6.30;2.70;;;18.00;1.00;;;;;;5100009;28;20056;-86
2022/03/26 12:23:03;;;;;;;9.32;4.13;;;18.00;99.90;;;;;;5098521;28;20047;-79
2022/03/26 12:25:53;;;;;;;7.53;3.40;;;17.70;1.00;;;;;;5115429;28;20047;-80
2022/03/26 12:28:25;;;;;;;5.30;4.32;;;17.40;1.00;;;;;;5098498;28;20040;-85
2022/03/26 12:30:56;;;;;;;6.82;3.83;;;17.10;1.00;;;;;;5115225;28;20100;-86
2022/03/26 12:33:23;;;;;;;7.65;3.53;;;17.20;1.00;;;;;;5098024;28;20044;-86
2022/03/26 12:35:50;;;;;;;5.57;3.83;;;17.30;1.00;;;;;;5098667;28;20495;-79